Terminal Aerodrome Forecast
Issued by NWS Knoxville/Tri Cities, TN

Home | Current Version | Previous Version | Text Only | Print | Product List | Glossary On
Versions: 1 2 3 4 5 6 7 8 9 10 11 12 13 14 15 16 17 18 19 20
000
FTUS44 KMRX 310531
TAFTYS
TAF
KTYS 310531Z 3106/0106 VRB02KT P6SM SCT250
     FM310900 00000KT P6SM BKN250
     FM311200 VRB03KT 5SM BR BKN100
     FM311400 32004KT P6SM OVC100
     FM311800 27007KT P6SM OVC050
     FM312100 28008KT 6SM -RA BR OVC025
     FM010000 28013KT P6SM -RA OVC015=

USA.gov is the U.S. government's official web portal to all federal, state and local government web resources and services.